createdAt,value
2019-04-11T00:00:28.460Z,5.44
2019-04-11T00:01:36.732Z,5.44
2019-04-11T00:02:29.433Z,5.42
2019-04-11T00:03:29.244Z,5.42
2019-04-11T00:04:28.408Z,5.44
2019-04-11T00:05:29.359Z,5.40
2019-04-11T00:06:28.397Z,5.41
2019-04-11T00:07:28.403Z,5.41
2019-04-11T00:08:28.388Z,5.40
2019-04-11T00:09:28.356Z,5.38
2019-04-11T00:10:29.192Z,5.44
2019-04-11T00:11:28.335Z,5.44
2019-04-11T00:12:28.470Z,5.45
2019-04-11T00:13:30.122Z,5.47
2019-04-11T00:14:29.563Z,5.45
2019-04-11T00:15:28.761Z,5.45
2019-04-11T00:16:28.937Z,5.44
2019-04-11T00:17:28.268Z,5.41
2019-04-11T00:18:28.269Z,5.37
2019-04-11T00:19:29.399Z,5.37
2019-04-11T00:20:28.457Z,5.37
2019-04-11T00:21:28.849Z,5.35
2019-04-11T00:22:28.229Z,5.38
2019-04-11T00:23:28.212Z,5.35
2019-04-11T00:24:29.211Z,5.33
2019-04-11T00:25:28.368Z,5.33
2019-04-11T00:26:28.589Z,5.41
2019-04-11T00:27:28.852Z,5.41
2019-04-11T00:28:28.166Z,5.42
2019-04-11T00:29:28.284Z,5.44
2019-04-11T00:30:28.261Z,5.42
2019-04-11T00:31:28.553Z,5.40
2019-04-11T00:32:28.119Z,5.41
2019-04-11T00:33:28.116Z,5.40
2019-04-11T00:34:29.028Z,5.38
2019-04-11T00:35:28.075Z,5.38
2019-04-11T00:36:28.418Z,5.38
2019-04-11T00:37:28.051Z,5.38
2019-04-11T00:38:28.055Z,5.37
2019-04-11T00:39:28.069Z,5.35
2019-04-11T00:40:29.048Z,5.35
2019-04-11T00:41:28.183Z,5.33
2019-04-11T00:42:28.352Z,5.30
2019-04-11T00:43:34.110Z,5.32
2019-04-11T00:44:28.979Z,5.26
2019-04-11T00:45:27.987Z,5.26
2019-04-11T00:46:28.698Z,5.27
2019-04-11T00:47:28.982Z,5.33
2019-04-11T00:48:28.020Z,5.35
2019-04-11T00:49:27.939Z,5.40
2019-04-11T00:50:29.101Z,5.38
2019-04-11T00:51:27.925Z,5.38
2019-04-11T00:52:27.897Z,5.37
2019-04-11T00:53:27.896Z,5.35
2019-04-11T00:54:28.913Z,5.37
2019-04-11T00:55:27.890Z,5.33
2019-04-11T00:56:28.368Z,5.32
2019-04-11T00:57:28.575Z,5.32
2019-04-11T00:58:27.852Z,5.32
2019-04-11T00:59:27.832Z,5.33
2019-04-11T01:00:29.054Z,5.29
2019-04-11T01:01:28.146Z,5.30
2019-04-11T01:02:27.792Z,5.32
2019-04-11T01:03:28.385Z,5.33
2019-04-11T01:04:27.779Z,5.33
2019-04-11T01:05:27.770Z,5.30
2019-04-11T01:06:28.029Z,5.29
2019-04-11T01:07:27.738Z,5.29
2019-04-11T01:08:27.752Z,5.24
2019-04-11T01:09:28.470Z,5.23
2019-04-11T01:10:27.733Z,5.24
2019-04-11T01:11:27.892Z,5.24
2019-04-11T01:12:28.718Z,5.24
2019-04-11T01:13:39.174Z,5.27
2019-04-11T01:14:29.878Z,5.29
2019-04-11T01:15:27.647Z,5.30
2019-04-11T01:16:28.410Z,5.29
2019-04-11T01:17:27.624Z,5.30
2019-04-11T01:18:27.778Z,5.26
2019-04-11T01:19:28.887Z,5.26
2019-04-11T01:20:27.622Z,5.27
2019-04-11T01:21:28.534Z,5.27
2019-04-11T01:22:27.586Z,5.26
2019-04-11T01:23:27.568Z,5.23
2019-04-11T01:24:28.129Z,5.22
2019-04-11T01:25:28.460Z,5.22
2019-04-11T01:26:28.231Z,5.19
2019-04-11T01:27:27.538Z,5.15
2019-04-11T01:28:27.519Z,5.17
2019-04-11T01:29:27.510Z,5.19
2019-04-11T01:30:27.545Z,5.20
2019-04-11T01:31:27.764Z,5.19
2019-04-11T01:32:28.456Z,5.17
2019-04-11T01:33:27.535Z,5.17
2019-04-11T01:34:28.657Z,5.15
2019-04-11T01:35:27.434Z,5.17
2019-04-11T01:36:27.442Z,5.19
2019-04-11T01:37:28.064Z,5.17
2019-04-11T01:38:28.300Z,5.14
2019-04-11T01:39:27.938Z,5.14
2019-04-11T01:40:27.382Z,5.11
2019-04-11T01:41:27.392Z,5.11
2019-04-11T01:42:27.360Z,5.12
2019-04-11T01:43:28.120Z,5.11
2019-04-11T01:44:28.308Z,5.09
2019-04-11T01:45:27.577Z,5.09
2019-04-11T01:46:27.339Z,5.11
2019-04-11T01:47:27.308Z,5.09
2019-04-11T01:48:27.881Z,5.08
2019-04-11T01:49:28.313Z,5.08
2019-04-11T01:50:27.277Z,5.09
2019-04-11T01:51:27.286Z,5.08
2019-04-11T01:52:27.256Z,5.09
2019-04-11T01:53:27.246Z,5.14
2019-04-11T01:54:28.078Z,5.19
2019-04-11T01:55:28.185Z,5.17
2019-04-11T01:56:27.412Z,5.12
2019-04-11T01:57:27.638Z,5.12
2019-04-11T01:58:27.203Z,5.11
2019-04-11T01:59:27.192Z,5.08
2019-04-11T02:00:28.077Z,5.09
2019-04-11T02:01:27.182Z,5.06
2019-04-11T02:02:27.156Z,5.08
2019-04-11T02:03:27.487Z,5.08
2019-04-11T02:04:27.903Z,5.08
2019-04-11T02:05:27.228Z,5.08
2019-04-11T02:06:27.109Z,5.08
2019-04-11T02:07:27.109Z,5.06
2019-04-11T02:08:27.177Z,5.09
2019-04-11T02:09:28.295Z,5.06
2019-04-11T02:10:27.068Z,5.05
2019-04-11T02:11:27.707Z,5.06
2019-04-11T02:12:27.055Z,5.06
2019-04-11T02:13:27.977Z,5.08
2019-04-11T02:14:27.977Z,5.05
2019-04-11T02:15:28.154Z,5.05
2019-04-11T02:16:27.266Z,5.02
2019-04-11T02:17:27.051Z,5.02
2019-04-11T02:18:27.665Z,5.02
2019-04-11T02:19:28.011Z,5.06
2019-04-11T02:20:27.187Z,5.05
2019-04-11T02:21:27.450Z,5.05
2019-04-11T02:22:26.947Z,5.04
2019-04-11T02:23:26.932Z,5.01
2019-04-11T02:24:27.925Z,5.05
2019-04-11T02:25:27.917Z,5.06
2019-04-11T02:26:27.265Z,5.04
2019-04-11T02:27:27.434Z,5.01
2019-04-11T02:28:26.868Z,5.02
2019-04-11T02:29:27.705Z,4.97
2019-04-11T02:30:27.887Z,5.02
2019-04-11T02:31:28.166Z,4.99
2019-04-11T02:32:29.007Z,4.96
2019-04-11T02:33:27.079Z,4.97
2019-04-11T02:34:27.746Z,4.97
2019-04-11T02:35:26.952Z,4.97
2019-04-11T02:36:27.220Z,4.97
2019-04-11T02:37:26.793Z,4.94
2019-04-11T02:38:28.308Z,4.96
2019-04-11T02:39:29.386Z,4.94
2019-04-11T02:40:27.750Z,4.93
2019-04-11T02:41:27.482Z,4.96
2019-04-11T02:42:27.676Z,4.94
2019-04-11T02:43:26.740Z,4.94
2019-04-11T02:44:36.612Z,4.90
2019-04-11T02:45:40.879Z,4.88
2019-04-11T02:46:35.573Z,4.86
2019-04-11T02:47:32.462Z,4.86
2019-04-11T02:48:28.815Z,4.83
2019-04-11T02:49:27.897Z,4.79
2019-04-11T02:50:26.772Z,4.79
2019-04-11T02:51:27.085Z,4.77
2019-04-11T02:52:27.759Z,4.77
2019-04-11T02:53:28.222Z,4.83
2019-04-11T02:54:26.969Z,4.83
2019-04-11T02:55:27.681Z,4.86
2019-04-11T02:56:27.803Z,4.87
2019-04-11T02:57:26.659Z,4.87
2019-04-11T02:58:27.914Z,4.86
2019-04-11T02:59:27.422Z,4.80
2019-04-11T03:00:27.208Z,4.83
2019-04-11T03:01:28.281Z,4.80
2019-04-11T03:02:26.843Z,4.80
2019-04-11T03:03:27.398Z,4.80
2019-04-11T03:04:27.003Z,4.74
2019-04-11T03:05:26.862Z,4.74
2019-04-11T03:06:27.930Z,4.71
2019-04-11T03:07:26.523Z,4.72
2019-04-11T03:08:28.175Z,4.74
2019-04-11T03:09:26.917Z,4.72
2019-04-11T03:10:27.104Z,4.72
2019-04-11T03:11:27.548Z,4.75
2019-04-11T03:12:27.524Z,4.72
2019-04-11T03:13:27.277Z,4.72
2019-04-11T03:14:27.737Z,4.69
2019-04-11T03:15:46.120Z,4.69
2019-04-11T03:16:40.158Z,4.68
2019-04-11T03:17:33.420Z,4.69
2019-04-11T03:18:47.645Z,4.69
2019-04-11T03:19:42.667Z,4.67
2019-04-11T03:20:34.349Z,4.72
2019-04-11T03:21:30.847Z,4.74
2019-04-11T03:22:27.356Z,4.72
2019-04-11T03:23:27.882Z,4.71
2019-04-11T03:24:27.154Z,4.72
2019-04-11T03:25:28.367Z,4.72
2019-04-11T03:26:27.060Z,4.71
2019-04-11T03:27:28.811Z,4.71
2019-04-11T03:28:30.243Z,4.69
2019-04-11T03:29:28.725Z,4.67
2019-04-11T03:30:44.631Z,4.61
2019-04-11T03:32:04.655Z,4.62
2019-04-11T03:37:53.939Z,4.68
2019-04-11T03:38:46.483Z,4.67
2019-04-11T03:39:44.260Z,4.69
2019-04-11T03:40:48.110Z,4.68
2019-04-11T03:41:48.854Z,4.67
2019-04-11T03:42:38.037Z,4.67
2019-04-11T03:43:39.768Z,4.64
2019-04-11T03:44:35.247Z,4.61
2019-04-11T03:45:48.064Z,4.59
2019-04-11T03:46:42.146Z,4.61
2019-04-11T03:47:37.351Z,4.59
2019-04-11T03:48:40.991Z,4.59
2019-04-11T03:49:37.548Z,4.57
2019-04-11T03:50:30.544Z,4.54
2019-04-11T03:51:27.717Z,4.53
2019-04-11T03:52:26.066Z,4.51
2019-04-11T03:53:29.497Z,4.51
2019-04-11T03:54:25.959Z,4.51
2019-04-11T03:55:27.940Z,4.56
2019-04-11T03:56:26.636Z,4.59
2019-04-11T03:57:27.565Z,4.61
2019-04-11T03:58:25.993Z,4.64
2019-04-11T03:59:27.025Z,4.64
2019-04-11T04:00:31.298Z,4.62
2019-04-11T04:01:27.009Z,4.61
2019-04-11T04:02:26.001Z,4.64
2019-04-11T04:03:26.800Z,4.62
2019-04-11T04:04:26.775Z,4.64
2019-04-11T04:05:26.763Z,4.61
2019-04-11T04:06:25.881Z,4.61
2019-04-11T04:07:27.659Z,4.56
2019-04-11T04:08:27.008Z,4.54
2019-04-11T04:09:26.998Z,4.54
2019-04-11T04:10:26.069Z,4.56
2019-04-11T04:11:27.698Z,4.51
2019-04-11T04:12:27.296Z,4.47
2019-04-11T04:13:28.259Z,4.49
2019-04-11T04:14:26.870Z,4.43
2019-04-11T04:15:47.134Z,4.44
2019-04-11T04:16:35.646Z,4.44
2019-04-11T04:17:27.854Z,4.44
2019-04-11T04:18:25.727Z,4.47
2019-04-11T04:19:27.080Z,4.47
2019-04-11T04:20:26.962Z,4.44
2019-04-11T04:21:26.554Z,4.50
2019-04-11T04:22:27.108Z,4.47
2019-04-11T04:23:27.314Z,4.47
2019-04-11T04:24:27.446Z,4.49
2019-04-11T04:25:26.173Z,4.50
2019-04-11T04:26:26.851Z,4.50
2019-04-11T04:27:27.939Z,4.49
2019-04-11T04:28:27.127Z,4.47
2019-04-11T04:29:27.626Z,4.46
2019-04-11T04:30:27.725Z,4.43
2019-04-11T04:31:26.676Z,4.47
2019-04-11T04:32:25.562Z,4.49
2019-04-11T04:33:26.584Z,4.50
2019-04-11T04:34:26.025Z,4.51
2019-04-11T04:35:27.392Z,4.54
2019-04-11T04:36:27.293Z,4.51
2019-04-11T04:37:26.720Z,4.50
2019-04-11T04:38:27.180Z,4.50
2019-04-11T04:39:27.207Z,4.47
2019-04-11T04:40:42.153Z,4.47
2019-04-11T04:41:36.646Z,4.46
2019-04-11T04:42:32.231Z,4.44
2019-04-11T04:43:27.511Z,4.47
2019-04-11T04:44:26.475Z,4.47
2019-04-11T04:45:25.449Z,4.47
2019-04-11T04:46:39.607Z,4.44
2019-04-11T04:47:37.026Z,4.47
2019-04-11T04:48:28.993Z,4.49
2019-04-11T04:49:25.382Z,4.49
2019-04-11T04:50:26.735Z,4.56
2019-04-11T04:51:26.754Z,4.59
2019-04-11T04:52:27.241Z,4.61
2019-04-11T04:53:27.715Z,4.61
2019-04-11T04:54:25.648Z,4.57
2019-04-11T04:55:25.981Z,4.57
2019-04-11T04:56:29.539Z,4.53
2019-04-11T04:57:26.796Z,4.54
2019-04-11T04:58:26.519Z,4.54
2019-04-11T04:59:25.298Z,4.61
2019-04-11T05:00:25.992Z,4.68
2019-04-11T05:01:26.623Z,4.72
2019-04-11T05:02:26.100Z,4.71
2019-04-11T05:03:26.787Z,4.71
2019-04-11T05:04:25.228Z,4.69
2019-04-11T05:05:26.653Z,4.68
2019-04-11T05:06:26.168Z,4.69
2019-04-11T05:07:27.513Z,4.72
2019-04-11T05:08:25.187Z,4.68
2019-04-11T05:09:25.643Z,4.67
2019-04-11T05:10:26.376Z,4.68
2019-04-11T05:11:26.234Z,4.72
2019-04-11T05:12:26.185Z,4.69
2019-04-11T05:13:25.385Z,4.72
2019-04-11T05:14:25.495Z,4.71
2019-04-11T05:15:26.118Z,4.71
2019-04-11T05:16:25.094Z,4.69
2019-04-11T05:17:26.327Z,4.71
2019-04-11T05:18:25.907Z,4.72
2019-04-11T05:19:25.546Z,4.80
2019-04-11T05:20:25.055Z,4.80
2019-04-11T05:21:25.439Z,4.84
2019-04-11T05:22:25.024Z,4.84
2019-04-11T05:23:25.515Z,4.90
2019-04-11T05:24:26.296Z,4.91
2019-04-11T05:25:25.022Z,4.97
2019-04-11T05:26:25.694Z,5.05
2019-04-11T05:27:25.161Z,5.17
2019-04-11T05:28:25.480Z,5.35
2019-04-11T05:29:25.050Z,5.49
2019-04-11T05:30:25.216Z,5.67
2019-04-11T05:31:24.931Z,5.84
2019-04-11T05:32:27.168Z,6.08
2019-04-11T05:33:25.317Z,6.33
2019-04-11T05:34:25.811Z,6.58
2019-04-11T05:35:24.977Z,7.14
2019-04-11T05:36:24.878Z,7.37
2019-04-11T05:37:24.966Z,7.89
2019-04-11T05:38:25.238Z,8.43
2019-04-11T05:39:25.530Z,8.96
2019-04-11T05:40:25.899Z,9.00
2019-04-11T05:41:26.091Z,9.17
2019-04-11T05:42:26.952Z,9.71
2019-04-11T05:43:29.280Z,10.31
2019-04-11T05:44:25.785Z,10.34
2019-04-11T05:45:26.053Z,10.24
2019-04-11T05:46:33.487Z,10.06
2019-04-11T05:47:25.753Z,9.80
2019-04-11T05:48:25.955Z,9.75
2019-04-11T05:49:24.733Z,10.09
2019-04-11T05:50:24.759Z,10.35
2019-04-11T05:51:25.232Z,10.93
2019-04-11T05:52:27.370Z,11.54
2019-04-11T05:53:25.701Z,10.93
2019-04-11T05:54:25.953Z,10.52
2019-04-11T05:55:25.854Z,10.49
2019-04-11T05:56:25.633Z,10.86
2019-04-11T05:57:31.323Z,11.53
2019-04-11T05:58:26.205Z,12.25
2019-04-11T05:59:25.590Z,12.18
2019-04-11T06:00:24.612Z,12.63
2019-04-11T06:01:24.618Z,12.73
2019-04-11T06:02:24.947Z,12.70
2019-04-11T06:03:24.588Z,12.08
2019-04-11T06:04:27.221Z,12.33
2019-04-11T06:05:29.607Z,12.21
2019-04-11T06:06:26.725Z,11.39
2019-04-11T06:07:25.141Z,11.45
2019-04-11T06:08:28.462Z,12.23
2019-04-11T06:09:30.278Z,12.56
2019-04-11T06:10:26.151Z,13.13
2019-04-11T06:11:24.515Z,13.79
2019-04-11T06:12:25.428Z,14.24
2019-04-11T06:13:24.651Z,14.48
2019-04-11T06:14:25.020Z,14.48
2019-04-11T06:15:24.994Z,13.72
2019-04-11T06:16:36.091Z,12.89
2019-04-11T06:17:25.966Z,13.01
2019-04-11T06:18:31.278Z,13.91
2019-04-11T06:19:25.402Z,14.61
2019-04-11T06:20:25.241Z,13.94
2019-04-11T06:21:24.441Z,13.55
2019-04-11T06:22:25.517Z,14.11
2019-04-11T06:23:25.459Z,13.75
2019-04-11T06:24:24.351Z,13.41
2019-04-11T06:25:25.796Z,13.44
2019-04-11T06:26:25.243Z,13.53
2019-04-11T06:27:24.340Z,14.36
2019-04-11T06:28:24.406Z,14.80
2019-04-11T06:29:26.514Z,14.09
2019-04-11T06:30:24.355Z,13.72
2019-04-11T06:31:24.794Z,13.76
2019-04-11T06:32:24.518Z,13.10
2019-04-11T06:33:24.752Z,13.09
2019-04-11T06:34:26.538Z,12.54
2019-04-11T06:35:24.249Z,11.53
2019-04-11T06:36:26.565Z,11.16
2019-04-11T06:37:24.217Z,10.18
2019-04-11T06:38:24.718Z,9.26
2019-04-11T06:39:24.233Z,9.31
2019-04-11T06:40:24.888Z,9.30
2019-04-11T06:41:24.418Z,9.19
2019-04-11T06:42:26.780Z,9.58
2019-04-11T06:43:24.181Z,9.50
2019-04-11T06:44:24.155Z,9.68
2019-04-11T06:45:24.125Z,9.32
2019-04-11T06:46:25.052Z,9.70
2019-04-11T06:47:25.021Z,10.13
2019-04-11T06:48:25.175Z,11.17
2019-04-11T06:49:24.646Z,11.84
2019-04-11T06:50:25.085Z,10.60
2019-04-11T06:51:24.075Z,11.72
2019-04-11T06:52:24.435Z,12.63
2019-04-11T06:53:24.045Z,12.56
2019-04-11T06:54:25.149Z,13.39
2019-04-11T06:55:24.041Z,14.02
2019-04-11T06:56:25.256Z,14.16
2019-04-11T06:57:23.991Z,13.91
2019-04-11T06:58:24.001Z,14.04
2019-04-11T06:59:24.034Z,14.49
2019-04-11T07:00:25.129Z,14.74
2019-04-11T07:01:23.993Z,14.61
2019-04-11T07:02:25.013Z,14.02
2019-04-11T07:03:26.285Z,12.29
2019-04-11T07:04:25.313Z,13.07
2019-04-11T07:05:24.702Z,13.55
2019-04-11T07:06:23.952Z,14.08
2019-04-11T07:07:27.000Z,14.87
2019-04-11T07:08:25.040Z,15.76
2019-04-11T07:09:24.416Z,15.46
2019-04-11T07:10:24.564Z,14.66
2019-04-11T07:11:23.884Z,15.51
2019-04-11T07:12:24.463Z,15.74
2019-04-11T07:13:24.837Z,13.59
2019-04-11T07:14:23.826Z,13.90
2019-04-11T07:15:24.877Z,14.72
2019-04-11T07:16:23.826Z,13.19
2019-04-11T07:17:24.636Z,13.27
2019-04-11T07:18:24.847Z,12.05
2019-04-11T07:19:23.844Z,10.78
2019-04-11T07:20:24.936Z,9.12
2019-04-11T07:21:23.765Z,8.32
2019-04-11T07:22:23.764Z,7.96
2019-04-11T07:23:24.321Z,7.73
2019-04-11T07:24:24.684Z,7.37
2019-04-11T07:25:23.779Z,7.26
2019-04-11T07:26:23.752Z,7.24
2019-04-11T07:27:23.831Z,6.89
2019-04-11T07:28:25.164Z,6.69
2019-04-11T07:29:23.995Z,6.48
2019-04-11T07:30:25.176Z,6.32
2019-04-11T07:31:23.631Z,6.36
2019-04-11T07:32:23.632Z,6.39
2019-04-11T07:33:24.522Z,6.42
2019-04-11T07:34:24.224Z,6.28
2019-04-11T07:35:24.901Z,6.43
2019-04-11T07:36:23.818Z,6.64
2019-04-11T07:37:23.702Z,6.87
2019-04-11T07:38:23.640Z,6.81
2019-04-11T07:39:24.603Z,6.78
2019-04-11T07:40:24.143Z,7.12
2019-04-11T07:41:23.895Z,7.96
2019-04-11T07:42:23.850Z,9.42
2019-04-11T07:43:24.764Z,10.81
2019-04-11T07:44:23.893Z,12.08
2019-04-11T07:45:23.488Z,12.36
2019-04-11T07:46:25.170Z,13.29
2019-04-11T07:47:26.340Z,14.11
2019-04-11T07:48:23.466Z,14.60
2019-04-11T07:49:24.443Z,14.85
2019-04-11T07:50:24.948Z,15.18
2019-04-11T07:51:23.435Z,14.11
2019-04-11T07:52:23.458Z,14.20
2019-04-11T07:53:24.038Z,15.22
2019-04-11T07:54:23.392Z,14.61
2019-04-11T07:55:23.471Z,13.90
2019-04-11T07:56:23.397Z,14.59
2019-04-11T07:57:23.352Z,13.14
2019-04-11T07:58:23.917Z,12.91
2019-04-11T07:59:23.329Z,13.81
2019-04-11T08:00:36.597Z,12.80
2019-04-11T08:01:24.920Z,12.91
2019-04-11T08:02:24.384Z,13.07
2019-04-11T08:03:23.529Z,12.21
2019-04-11T08:04:23.981Z,12.29
2019-04-11T08:05:23.606Z,12.30
2019-04-11T08:06:24.294Z,11.94
2019-04-11T08:07:24.376Z,12.55
2019-04-11T08:08:23.346Z,13.46
2019-04-11T08:09:24.396Z,13.17
2019-04-11T08:10:23.222Z,13.63
2019-04-11T08:11:23.497Z,13.41
2019-04-11T08:12:23.545Z,13.94
2019-04-11T08:13:23.288Z,14.35
2019-04-11T08:14:24.410Z,13.86
2019-04-11T08:15:23.774Z,15.07
2019-04-11T08:16:23.353Z,14.83
2019-04-11T08:17:32.083Z,15.23
2019-04-11T08:18:24.422Z,14.86
2019-04-11T08:19:23.139Z,14.36
2019-04-11T08:20:23.489Z,14.42
2019-04-11T08:21:23.096Z,14.94
2019-04-11T08:22:23.157Z,15.15
2019-04-11T08:23:23.470Z,13.96
2019-04-11T08:24:25.773Z,12.89
2019-04-11T08:25:23.111Z,12.55
2019-04-11T08:26:24.102Z,12.03
2019-04-11T08:27:23.241Z,12.18
2019-04-11T08:28:23.028Z,12.54
2019-04-11T08:29:24.222Z,13.61
2019-04-11T08:30:26.538Z,14.48
2019-04-11T08:31:23.019Z,14.67
2019-04-11T08:32:23.004Z,15.20
2019-04-11T08:33:22.963Z,14.93
2019-04-11T08:34:23.664Z,15.38
2019-04-11T08:35:23.985Z,15.78
2019-04-11T08:36:24.022Z,15.95
2019-04-11T08:37:23.318Z,16.33
2019-04-11T08:38:22.939Z,15.41
2019-04-11T08:39:22.930Z,15.55
2019-04-11T08:40:23.935Z,15.34
2019-04-11T08:41:23.191Z,15.59
2019-04-11T08:42:23.384Z,15.46
2019-04-11T08:43:23.409Z,15.28
2019-04-11T08:44:23.787Z,14.48
2019-04-11T08:45:23.697Z,12.26
2019-04-11T08:46:22.850Z,11.59
2019-04-11T08:47:22.820Z,10.91
2019-04-11T08:48:22.883Z,12.11
2019-04-11T08:49:23.739Z,13.87
2019-04-11T08:50:22.811Z,15.22
2019-04-11T08:51:23.189Z,15.51
2019-04-11T08:52:24.333Z,14.87
2019-04-11T08:53:22.760Z,14.06
2019-04-11T08:54:23.708Z,13.76
2019-04-11T08:55:23.228Z,13.29
2019-04-11T08:56:23.052Z,10.94
2019-04-11T08:57:23.440Z,10.80
2019-04-11T08:58:22.724Z,10.76
2019-04-11T08:59:22.727Z,9.85
2019-04-11T09:00:22.677Z,9.42
2019-04-11T09:01:22.667Z,8.89
2019-04-11T09:02:22.676Z,8.76
2019-04-11T09:03:23.896Z,8.88
2019-04-11T09:04:23.892Z,9.08
2019-04-11T09:05:23.297Z,9.27
2019-04-11T09:06:22.914Z,9.48
2019-04-11T09:07:23.285Z,9.56
2019-04-11T09:08:23.777Z,9.59
2019-04-11T09:09:23.328Z,9.24
2019-04-11T09:10:22.614Z,9.08
2019-04-11T09:11:22.643Z,8.96
2019-04-11T09:12:22.602Z,8.94
2019-04-11T09:13:22.982Z,9.01
2019-04-11T09:14:22.539Z,8.78
2019-04-11T09:15:22.610Z,8.68
2019-04-11T09:16:23.631Z,8.71
2019-04-11T09:17:23.382Z,8.57
2019-04-11T09:18:22.493Z,8.70
2019-04-11T09:19:23.032Z,8.80
2019-04-11T09:20:23.360Z,8.78
2019-04-11T09:21:22.482Z,8.36
2019-04-11T09:22:22.649Z,8.21
2019-04-11T09:23:22.458Z,8.03
2019-04-11T09:24:22.443Z,8.24
2019-04-11T09:25:23.288Z,8.29
2019-04-11T09:26:23.333Z,8.65
2019-04-11T09:27:22.630Z,8.25
2019-04-11T09:28:22.396Z,8.12
2019-04-11T09:29:22.394Z,7.92
2019-04-11T09:30:23.069Z,7.89
2019-04-11T09:31:22.365Z,8.06
2019-04-11T09:32:22.363Z,8.09
2019-04-11T09:33:22.677Z,8.17
2019-04-11T09:34:22.324Z,8.24
2019-04-11T09:35:22.303Z,8.06
2019-04-11T09:36:22.316Z,7.95
2019-04-11T09:37:22.287Z,7.96
2019-04-11T09:38:22.283Z,8.21
2019-04-11T09:39:23.258Z,8.39
2019-04-11T09:40:23.942Z,8.13
2019-04-11T09:41:22.674Z,8.02
2019-04-11T09:42:23.010Z,7.91
2019-04-11T09:43:22.309Z,8.02
2019-04-11T09:44:22.508Z,8.13
2019-04-11T09:45:22.231Z,8.22
2019-04-11T09:46:22.219Z,8.32
2019-04-11T09:47:22.497Z,8.40
2019-04-11T09:48:23.374Z,8.54
2019-04-11T09:49:22.744Z,8.54
2019-04-11T09:50:22.423Z,8.55
2019-04-11T09:51:23.366Z,8.60
2019-04-11T09:52:22.740Z,8.47
2019-04-11T09:53:22.757Z,8.32
2019-04-11T09:54:22.178Z,8.14
2019-04-11T09:55:23.298Z,7.96
2019-04-11T09:56:22.872Z,7.95
2019-04-11T09:57:22.851Z,7.91
2019-04-11T09:58:23.174Z,7.92
2019-04-11T09:59:23.014Z,7.91
2019-04-11T10:00:22.900Z,8.13
2019-04-11T10:01:22.421Z,8.31
2019-04-11T10:02:23.267Z,8.21
2019-04-11T10:03:23.367Z,8.25
2019-04-11T10:04:23.324Z,8.39
2019-04-11T10:05:22.316Z,8.21
2019-04-11T10:06:21.973Z,8.07
2019-04-11T10:07:21.972Z,8.06
2019-04-11T10:08:22.488Z,8.03
2019-04-11T10:09:22.037Z,7.95
2019-04-11T10:10:21.926Z,7.86
2019-04-11T10:11:22.021Z,7.79
2019-04-11T10:12:22.136Z,7.73
2019-04-11T10:13:21.897Z,7.74
2019-04-11T10:14:21.895Z,7.92
2019-04-11T10:15:23.151Z,8.13
2019-04-11T10:16:22.644Z,8.34
2019-04-11T10:17:24.533Z,8.32
2019-04-11T10:18:26.140Z,8.14
2019-04-11T10:19:24.210Z,8.06
2019-04-11T10:20:21.825Z,8.03
2019-04-11T10:21:23.013Z,8.10
2019-04-11T10:22:22.732Z,8.27
2019-04-11T10:23:22.818Z,8.43
2019-04-11T10:24:22.424Z,8.49
2019-04-11T10:25:23.133Z,8.32
2019-04-11T10:26:21.753Z,8.32
2019-04-11T10:27:22.588Z,8.42
2019-04-11T10:28:21.839Z,8.14
2019-04-11T10:29:21.753Z,7.82
2019-04-11T10:30:22.913Z,7.74
2019-04-11T10:31:22.398Z,7.82
2019-04-11T10:32:21.689Z,7.89
2019-04-11T10:33:22.600Z,7.99
2019-04-11T10:34:21.727Z,8.12
2019-04-11T10:35:22.050Z,8.17
2019-04-11T10:36:21.666Z,8.04
2019-04-11T10:37:21.676Z,8.24
2019-04-11T10:38:22.501Z,8.36
2019-04-11T10:39:21.651Z,8.31
2019-04-11T10:40:21.702Z,8.39
2019-04-11T10:41:21.617Z,8.54
2019-04-11T10:42:22.169Z,8.65
2019-04-11T10:43:22.450Z,8.76
2019-04-11T10:44:21.586Z,8.93
2019-04-11T10:45:22.589Z,9.01
2019-04-11T10:46:21.574Z,8.94
2019-04-11T10:47:22.815Z,8.73
2019-04-11T10:48:33.532Z,8.64
2019-04-11T10:49:22.503Z,8.65
2019-04-11T10:50:21.792Z,8.64
2019-04-11T10:51:22.548Z,8.55
2019-04-11T10:52:22.525Z,8.57
2019-04-11T10:53:22.813Z,8.64
2019-04-11T10:54:21.845Z,8.52
2019-04-11T10:55:21.838Z,8.55
2019-04-11T10:56:22.217Z,8.70
2019-04-11T10:57:22.500Z,8.85
2019-04-11T10:58:21.580Z,8.98
2019-04-11T10:59:21.618Z,8.97
2019-04-11T11:00:21.396Z,8.98
2019-04-11T11:01:21.951Z,8.97
2019-04-11T11:02:21.389Z,8.83
2019-04-11T11:03:22.246Z,8.85
2019-04-11T11:04:21.345Z,8.80
2019-04-11T11:05:22.173Z,8.85
2019-04-11T11:06:21.858Z,8.91
2019-04-11T11:07:21.348Z,8.61
2019-04-11T11:08:21.619Z,8.55
2019-04-11T11:09:21.862Z,8.50
2019-04-11T11:10:21.657Z,8.76
2019-04-11T11:11:21.972Z,9.01
2019-04-11T11:12:21.308Z,9.20
2019-04-11T11:13:21.631Z,9.19
2019-04-11T11:14:21.244Z,9.10
2019-04-11T11:15:23.184Z,8.73
2019-04-11T11:16:22.282Z,8.63
2019-04-11T11:17:43.855Z,8.64
2019-04-11T11:19:40.301Z,8.52
2019-04-11T11:20:28.447Z,8.37
2019-04-11T11:21:26.563Z,8.34
2019-04-11T11:22:23.751Z,8.43
2019-04-11T11:23:21.143Z,8.63
2019-04-11T11:24:23.895Z,8.83
2019-04-11T11:25:22.392Z,9.03
2019-04-11T11:26:22.835Z,9.00
2019-04-11T11:27:22.258Z,9.01
2019-04-11T11:28:21.507Z,9.06
2019-04-11T11:29:21.080Z,9.03
2019-04-11T11:30:21.150Z,8.98
2019-04-11T11:31:22.288Z,8.94
2019-04-11T11:32:21.172Z,8.91
2019-04-11T11:33:22.211Z,8.96
2019-04-11T11:34:22.101Z,8.89
2019-04-11T11:35:26.054Z,8.85
2019-04-11T11:36:22.015Z,8.63
2019-04-11T11:37:20.993Z,8.58
2019-04-11T11:38:21.943Z,8.55
2019-04-11T11:39:20.980Z,8.31
2019-04-11T11:40:21.808Z,8.28
2019-04-11T11:41:21.030Z,8.47
2019-04-11T11:42:22.279Z,8.63
2019-04-11T11:43:21.181Z,8.76
2019-04-11T11:44:20.918Z,8.93
2019-04-11T11:45:21.505Z,9.00
2019-04-11T11:46:25.607Z,9.13
2019-04-11T11:47:21.890Z,9.20
2019-04-11T11:48:22.326Z,9.22
2019-04-11T11:49:39.419Z,9.27
2019-04-11T11:50:23.673Z,9.12
2019-04-11T11:51:25.597Z,9.00
2019-04-11T11:52:22.801Z,9.15
2019-04-11T11:53:20.818Z,9.17
2019-04-11T11:54:21.913Z,9.08
2019-04-11T11:55:21.846Z,8.94
2019-04-11T11:56:22.008Z,8.97
2019-04-11T11:57:20.772Z,9.13
2019-04-11T11:58:21.579Z,9.35
2019-04-11T11:59:20.772Z,9.44
2019-04-11T12:00:21.086Z,9.52
2019-04-11T12:01:21.855Z,9.62
2019-04-11T12:02:22.385Z,9.74
2019-04-11T12:03:23.422Z,9.77
2019-04-11T12:04:24.056Z,9.77
2019-04-11T12:05:20.692Z,9.88
2019-04-11T12:06:22.245Z,9.91
2019-04-11T12:07:21.048Z,9.77
2019-04-11T12:08:20.667Z,9.58
2019-04-11T12:09:20.659Z,9.58
2019-04-11T12:10:22.493Z,9.70
2019-04-11T12:11:20.643Z,9.38
2019-04-11T12:12:21.835Z,9.26
2019-04-11T12:13:20.604Z,9.22
2019-04-11T12:14:20.624Z,9.12
2019-04-11T12:15:22.458Z,8.88
2019-04-11T12:16:21.927Z,8.79
2019-04-11T12:17:20.795Z,8.82
2019-04-11T12:18:21.634Z,8.79
2019-04-11T12:19:22.195Z,8.76
2019-04-11T12:20:20.831Z,8.61
2019-04-11T12:21:26.036Z,8.39
2019-04-11T12:22:21.505Z,8.32
2019-04-11T12:23:22.666Z,8.31
2019-04-11T12:24:20.501Z,8.43
2019-04-11T12:25:20.862Z,8.50
2019-04-11T12:26:20.522Z,8.58
2019-04-11T12:27:20.687Z,8.55
2019-04-11T12:28:21.330Z,8.49
2019-04-11T12:29:21.871Z,8.64
2019-04-11T12:30:23.448Z,8.88
2019-04-11T12:31:20.417Z,9.01
2019-04-11T12:32:20.398Z,9.13
2019-04-11T12:33:21.493Z,9.24
2019-04-11T12:34:20.389Z,9.13
2019-04-11T12:35:22.879Z,8.94
2019-04-11T12:36:21.042Z,9.15
2019-04-11T12:37:22.209Z,9.30
2019-04-11T12:38:20.439Z,9.30
2019-04-11T12:39:20.338Z,9.27
2019-04-11T12:40:20.314Z,9.27
2019-04-11T12:41:20.344Z,9.22
2019-04-11T12:42:20.310Z,9.19
2019-04-11T12:43:20.283Z,9.30
2019-04-11T12:44:20.283Z,9.37
2019-04-11T12:45:20.262Z,9.19
2019-04-11T12:46:29.556Z,8.82
2019-04-11T12:47:21.252Z,8.79
2019-04-11T12:48:20.231Z,8.89
2019-04-11T12:49:20.216Z,8.98
2019-04-11T12:50:20.220Z,9.04
2019-04-11T12:51:20.200Z,9.15
2019-04-11T12:52:20.205Z,9.15
2019-04-11T12:53:20.179Z,9.00
2019-04-11T12:54:20.189Z,9.10
2019-04-11T12:55:20.171Z,9.03
2019-04-11T12:56:20.179Z,8.97
2019-04-11T12:57:20.147Z,8.96
2019-04-11T12:58:20.120Z,8.97
2019-04-11T12:59:20.106Z,9.15
2019-04-11T13:00:20.096Z,9.22
2019-04-11T13:01:20.103Z,9.27
2019-04-11T13:02:20.084Z,9.10
2019-04-11T13:03:20.077Z,8.97
2019-04-11T13:04:20.065Z,9.03
2019-04-11T13:05:20.044Z,9.15
2019-04-11T13:06:20.046Z,9.12
2019-04-11T13:07:20.044Z,9.12
2019-04-11T13:08:20.013Z,9.04
2019-04-11T13:09:20.001Z,9.23
2019-04-11T13:10:20.032Z,9.38
2019-04-11T13:11:19.981Z,9.31
2019-04-11T13:12:19.991Z,9.22
2019-04-11T13:13:19.981Z,9.27
2019-04-11T13:14:19.952Z,9.12
2019-04-11T13:15:19.938Z,9.06
2019-04-11T13:16:19.931Z,9.20
2019-04-11T13:17:19.929Z,9.35
2019-04-11T13:18:20.256Z,9.49
2019-04-11T13:19:19.918Z,9.53